createdAt,value
2017-08-03T00:01:47.621Z,93.90
2017-08-03T00:04:16.162Z,93.80
2017-08-03T00:06:44.662Z,93.50
2017-08-03T00:09:13.198Z,93.70
2017-08-03T00:11:41.617Z,93.80
2017-08-03T00:14:10.099Z,93.80
2017-08-03T00:16:38.593Z,94.30
2017-08-03T00:19:07.072Z,94.70
2017-08-03T00:21:35.670Z,94.90
2017-08-03T00:24:04.199Z,94.30
2017-08-03T00:26:32.680Z,94.10
2017-08-03T00:29:01.208Z,94.30
2017-08-03T00:31:29.654Z,94.40
2017-08-03T00:33:58.140Z,95.00
2017-08-03T00:36:27.183Z,94.60
2017-08-03T00:38:55.693Z,95.20
2017-08-03T00:41:24.184Z,95.10
2017-08-03T00:43:52.630Z,95.00
2017-08-03T00:46:21.131Z,94.90
2017-08-03T00:48:49.579Z,95.40
2017-08-03T00:51:18.047Z,95.40
2017-08-03T00:53:46.530Z,95.60
2017-08-03T00:56:15.000Z,95.90
2017-08-03T00:58:43.538Z,95.90
2017-08-03T01:01:12.108Z,95.60
2017-08-03T01:03:40.563Z,95.80
2017-08-03T01:06:09.081Z,95.60
2017-08-03T01:08:37.549Z,95.60
2017-08-03T01:11:06.118Z,95.30
2017-08-03T01:13:34.570Z,94.90
2017-08-03T01:16:02.337Z,95.30
2017-08-03T01:18:30.894Z,94.70
2017-08-03T01:20:58.646Z,93.40
2017-08-03T01:23:27.111Z,92.80
2017-08-03T01:25:55.699Z,92.10
2017-08-03T01:28:24.166Z,92.20
2017-08-03T01:30:52.625Z,91.80
2017-08-03T01:33:21.206Z,91.70
2017-08-03T01:35:49.654Z,91.80
2017-08-03T01:38:18.195Z,91.40
2017-08-03T01:40:46.653Z,91.40
2017-08-03T01:43:15.068Z,91.20
2017-08-03T01:45:43.575Z,91.00
2017-08-03T01:48:12.099Z,90.90
2017-08-03T01:50:40.622Z,91.70
2017-08-03T01:53:08.715Z,91.90
2017-08-03T01:55:36.892Z,92.20
2017-08-03T01:58:05.345Z,92.60
2017-08-03T02:00:33.453Z,93.30
2017-08-03T02:03:01.963Z,92.10
2017-08-03T02:05:29.694Z,91.50
2017-08-03T02:07:57.489Z,90.90
2017-08-03T02:10:25.643Z,90.60
2017-08-03T02:12:54.164Z,90.30
2017-08-03T02:15:22.618Z,90.50
2017-08-03T02:17:51.074Z,90.50
2017-08-03T02:20:19.499Z,90.50
2017-08-03T02:22:47.933Z,90.60
2017-08-03T02:25:16.428Z,90.50
2017-08-03T02:27:44.875Z,90.50
2017-08-03T02:30:13.338Z,90.30
2017-08-03T02:32:41.817Z,90.30
2017-08-03T02:35:11.078Z,90.20
2017-08-03T02:37:39.534Z,90.20
2017-08-03T02:40:08.017Z,90.10
2017-08-03T02:42:36.481Z,90.00
2017-08-03T02:45:05.009Z,90.00
2017-08-03T02:47:33.686Z,89.50
2017-08-03T02:50:02.131Z,89.70
2017-08-03T02:52:30.599Z,89.30
2017-08-03T02:54:59.040Z,89.80
2017-08-03T02:57:27.526Z,90.50
2017-08-03T02:59:56.078Z,90.50
2017-08-03T03:02:24.525Z,91.40
2017-08-03T03:04:52.963Z,91.00
2017-08-03T03:07:21.498Z,92.10
2017-08-03T03:09:49.979Z,91.70
2017-08-03T03:12:18.526Z,91.10
2017-08-03T03:14:46.990Z,91.10
2017-08-03T03:17:15.428Z,91.60
2017-08-03T03:19:43.883Z,90.50
2017-08-03T03:22:12.380Z,90.30
2017-08-03T03:24:40.822Z,90.90
2017-08-03T03:27:09.288Z,90.20
2017-08-03T03:29:37.839Z,91.60
2017-08-03T03:32:06.302Z,91.10
2017-08-03T03:34:34.814Z,91.40
2017-08-03T03:37:03.510Z,91.20
2017-08-03T03:39:31.955Z,92.20
2017-08-03T03:42:00.330Z,92.10
2017-08-03T03:44:29.555Z,91.00
2017-08-03T03:46:58.075Z,90.70
2017-08-03T03:49:26.569Z,90.20
2017-08-03T03:51:55.034Z,90.30
2017-08-03T03:54:23.566Z,90.10
2017-08-03T03:56:52.043Z,89.70
2017-08-03T03:59:20.628Z,88.60
2017-08-03T04:01:49.099Z,88.00
2017-08-03T04:04:17.630Z,88.10
2017-08-03T04:06:46.061Z,88.90
2017-08-03T04:09:14.510Z,88.00
2017-08-03T04:11:43.011Z,88.00
2017-08-03T04:14:11.515Z,90.10
2017-08-03T04:16:39.964Z,88.60
2017-08-03T04:19:08.434Z,89.60
2017-08-03T04:21:36.874Z,89.00
2017-08-03T04:24:05.378Z,88.20
2017-08-03T04:26:34.107Z,87.80
2017-08-03T04:29:02.622Z,88.60
2017-08-03T04:31:31.217Z,87.40
2017-08-03T04:33:59.679Z,90.30
2017-08-03T04:36:28.158Z,90.00
2017-08-03T04:38:56.609Z,89.90
2017-08-03T04:41:25.090Z,90.30
2017-08-03T04:43:53.604Z,88.80
2017-08-03T04:46:22.058Z,87.60
2017-08-03T04:48:50.578Z,86.60
2017-08-03T04:51:19.135Z,85.80
2017-08-03T04:53:47.578Z,85.40
2017-08-03T04:56:16.152Z,85.00
2017-08-03T04:58:44.617Z,84.80
2017-08-03T05:01:13.118Z,87.00
2017-08-03T05:03:41.594Z,86.20
2017-08-03T05:06:10.070Z,85.60
2017-08-03T05:08:38.537Z,84.40
2017-08-03T05:11:07.069Z,83.20
2017-08-03T05:13:35.558Z,83.10
2017-08-03T05:16:04.085Z,82.90
2017-08-03T05:18:32.572Z,84.40
2017-08-03T05:21:01.017Z,82.90
2017-08-03T05:23:29.720Z,84.60
2017-08-03T05:25:57.928Z,84.70
2017-08-03T05:28:26.474Z,84.10
2017-08-03T05:30:54.963Z,82.90
2017-08-03T05:33:23.523Z,82.70
2017-08-03T05:35:52.087Z,83.80
2017-08-03T05:38:20.582Z,83.90
2017-08-03T05:40:48.854Z,85.30
2017-08-03T05:43:17.382Z,82.80
2017-08-03T05:45:45.822Z,83.30
2017-08-03T05:48:14.247Z,80.10
2017-08-03T05:50:42.707Z,79.00
2017-08-03T05:53:11.130Z,78.70
2017-08-03T05:55:39.600Z,76.70
2017-08-03T05:58:07.891Z,77.30
2017-08-03T06:00:35.625Z,75.50
2017-08-03T06:03:04.103Z,73.40
2017-08-03T06:05:32.551Z,75.80
2017-08-03T06:08:01.019Z,73.60
2017-08-03T06:10:29.515Z,75.30
2017-08-03T06:12:58.030Z,77.30
2017-08-03T06:15:26.519Z,73.80
2017-08-03T06:17:54.957Z,74.70
2017-08-03T06:20:23.407Z,75.20
2017-08-03T06:22:51.842Z,70.90
2017-08-03T06:25:20.303Z,72.90
2017-08-03T06:27:48.787Z,70.00
2017-08-03T06:30:17.233Z,67.20
2017-08-03T06:32:45.713Z,67.30
2017-08-03T06:35:14.269Z,64.80
2017-08-03T06:37:42.743Z,65.70
2017-08-03T11:17:10.674Z,30.00
2017-08-03T11:19:51.910Z,34.90
2017-08-03T11:22:39.874Z,31.20
2017-08-03T11:33:19.712Z,35.20
2017-08-03T11:35:48.267Z,32.40
2017-08-03T11:38:18.274Z,36.50
2017-08-03T11:43:22.716Z,37.00
2017-08-03T11:45:54.306Z,33.40
2017-08-03T11:51:00.559Z,34.80
2017-08-03T11:53:29.302Z,35.40
2017-08-03T11:55:57.979Z,39.40
2017-08-03T12:01:04.796Z,37.30
2017-08-03T12:03:38.751Z,35.10
2017-08-03T12:06:07.951Z,35.90
2017-08-03T12:08:37.734Z,36.90
2017-08-03T12:11:13.180Z,36.60
2017-08-03T12:16:29.114Z,36.10
2017-08-03T12:18:59.946Z,33.20
2017-08-03T12:21:28.530Z,38.40
2017-08-03T12:23:58.085Z,35.20
2017-08-03T12:26:26.422Z,37.60
2017-08-03T12:28:55.145Z,33.20
2017-08-03T12:31:24.916Z,35.30
2017-08-03T12:33:54.881Z,37.00
2017-08-03T12:36:23.612Z,40.70
2017-08-03T12:38:52.613Z,41.90
2017-08-03T12:41:22.142Z,39.10
2017-08-03T12:43:51.586Z,39.40
2017-08-03T12:46:20.188Z,40.00
2017-08-03T12:48:56.979Z,42.40
2017-08-03T12:51:27.183Z,38.80
2017-08-03T12:53:56.427Z,42.60
2017-08-03T12:56:25.015Z,40.20
2017-08-03T12:58:54.259Z,41.50
2017-08-03T13:01:32.189Z,38.30
2017-08-03T13:04:00.693Z,44.00
2017-08-03T13:12:07.824Z,41.70
2017-08-03T13:14:36.449Z,41.80
2017-08-03T13:23:23.103Z,39.20
2017-08-03T13:31:52.072Z,42.40
2017-08-03T13:34:27.282Z,40.60
2017-08-03T13:37:01.326Z,44.60
2017-08-03T13:45:04.953Z,43.20
2017-08-03T13:48:01.386Z,41.90
2017-08-03T14:45:03.979Z,39.60
2017-08-03T15:30:09.613Z,60.00
2017-08-03T15:32:39.655Z,60.40
2017-08-03T15:35:09.156Z,59.60
2017-08-03T15:40:44.822Z,56.80
2017-08-03T15:43:25.028Z,57.50
2017-08-03T15:48:48.348Z,54.60
2017-08-03T16:34:39.879Z,70.70
2017-08-03T16:46:57.280Z,74.30
2017-08-03T16:49:29.617Z,75.60
2017-08-03T16:54:50.464Z,77.20
2017-08-03T17:52:18.514Z,83.50
2017-08-03T18:00:45.516Z,85.10
2017-08-03T18:32:21.215Z,86.50
2017-08-03T20:03:19.376Z,79.00
2017-08-03T20:36:03.167Z,66.50
2017-08-03T20:47:01.635Z,66.40
2017-08-03T21:02:43.167Z,62.90
2017-08-03T21:41:27.196Z,65.60
2017-08-03T21:44:00.831Z,65.40
2017-08-03T21:46:32.758Z,65.00
2017-08-03T21:49:10.274Z,65.10
2017-08-03T21:52:05.353Z,65.10
2017-08-03T21:57:46.054Z,64.70
2017-08-03T22:00:14.983Z,64.10
2017-08-03T22:05:42.151Z,64.30
2017-08-03T22:08:15.747Z,64.40
2017-08-03T22:10:44.454Z,64.50
2017-08-03T22:13:35.306Z,64.30
2017-08-03T22:16:21.411Z,64.80
2017-08-03T22:18:51.870Z,64.70
2017-08-03T22:21:20.727Z,65.00
2017-08-03T22:23:49.377Z,65.00
2017-08-03T22:26:21.747Z,65.60
2017-08-03T22:28:55.082Z,65.40
2017-08-03T22:31:36.096Z,66.30
2017-08-03T22:34:06.353Z,66.40
2017-08-03T22:36:36.964Z,66.50
2017-08-03T22:42:49.326Z,68.40
2017-08-03T22:52:12.446Z,68.80
2017-08-03T22:58:30.323Z,69.00
2017-08-03T23:03:50.025Z,69.80
2017-08-03T23:06:34.727Z,69.30
2017-08-03T23:12:03.378Z,70.00
2017-08-03T23:18:54.827Z,70.40
2017-08-03T23:21:25.754Z,70.50
2017-08-03T23:24:02.960Z,71.00
2017-08-03T23:26:31.567Z,70.50
2017-08-03T23:29:00.158Z,71.20
2017-08-03T23:31:28.637Z,71.90
2017-08-03T23:37:20.679Z,72.20
2017-08-03T23:43:10.625Z,72.00
2017-08-03T23:45:39.928Z,72.60
2017-08-03T23:54:12.037Z,73.10
2017-08-03T23:56:46.336Z,72.50
